Time;durP1;ratioP1;P1;durP2;ratioP2;P2;SDS_P1;SDS_P2;PMS_P1;PMS_P2;Temp;Humidity;BMP_temperature;BMP_pressure;BME280_temperature;BME280_humidity;BME280_pressure;Samples;Min_cycle;Max_cycle;Signal;HPM_P1;HPM_P2
2022/11/09 00:01:26;;;;;;;33.98;20.75;;;;;;;2.10;100.00;101101.14;1769366;80;20915;-58
2022/11/09 00:03:58;;;;;;;29.95;19.73;;;;;;;2.09;100.00;101101.27;1774844;79;20923;-58
2022/11/09 00:06:26;;;;;;;39.15;24.80;;;;;;;2.14;100.00;101094.86;1780089;80;20982;-57
2022/11/09 00:08:53;;;;;;;36.90;23.10;;;;;;;2.16;100.00;101100.73;1780254;80;21508;-58
2022/11/09 00:11:20;;;;;;;39.48;24.12;;;;;;;2.22;100.00;101099.92;1780099;80;22311;-58
2022/11/09 00:13:48;;;;;;;39.58;25.72;;;;;;;2.22;100.00;101094.78;1779633;80;20903;-67
2022/11/09 00:16:17;;;;;;;36.42;24.50;;;;;;;2.19;100.00;101099.20;1780138;80;20978;-57
2022/11/09 00:18:47;;;;;;;48.80;32.88;;;;;;;2.18;100.00;101102.70;1780278;80;21039;-58
2022/11/09 00:21:17;;;;;;;43.45;27.25;;;;;;;2.17;100.00;101104.12;1780060;80;21007;-57
2022/11/09 00:23:46;;;;;;;40.63;24.30;;;;;;;2.13;100.00;101100.94;1779612;79;21877;-58
2022/11/09 00:26:15;;;;;;;39.45;24.47;;;;;;;2.10;100.00;101105.00;1780027;80;21915;-57
2022/11/09 00:28:43;;;;;;;38.65;24.35;;;;;;;2.00;100.00;101108.31;1780338;80;20959;-57
2022/11/09 00:31:12;;;;;;;38.70;25.10;;;;;;;1.91;100.00;101114.45;1780026;80;20990;-57
2022/11/09 00:33:41;;;;;;;42.47;28.07;;;;;;;1.78;100.00;101113.67;1779835;80;20998;-62
2022/11/09 00:36:13;;;;;;;37.00;24.43;;;;;;;1.75;100.00;101115.16;1780015;80;21695;-58
2022/11/09 00:38:41;;;;;;;42.25;24.35;;;;;;;1.70;100.00;101112.91;1780441;80;20824;-57
2022/11/09 00:41:10;;;;;;;37.83;24.70;;;;;;;1.79;100.00;101115.78;1780056;80;20836;-58
2022/11/09 00:43:38;;;;;;;41.35;24.85;;;;;;;1.76;100.00;101110.84;1779783;80;20951;-59
2022/11/09 00:46:06;;;;;;;45.38;31.82;;;;;;;1.88;100.00;101109.52;1780113;80;20998;-58
2022/11/09 00:48:33;;;;;;;50.48;33.80;;;;;;;1.86;100.00;101110.58;1780193;80;21222;-57
2022/11/09 00:51:01;;;;;;;34.33;20.92;;;;;;;1.83;100.00;101115.92;1780356;80;21006;-57
2022/11/09 00:53:29;;;;;;;36.08;21.97;;;;;;;1.70;100.00;101114.63;1779849;80;20975;-66
2022/11/09 00:56:06;;;;;;;34.80;22.07;;;;;;;1.58;100.00;101115.01;1780030;80;21393;-58
2022/11/09 00:58:35;;;;;;;38.80;25.43;;;;;;;1.55;100.00;101119.53;1780666;80;21010;-57
2022/11/09 01:01:12;;;;;;;37.42;23.95;;;;;;;1.52;100.00;101123.15;1780080;80;21320;-67
2022/11/09 01:03:41;;;;;;;40.30;24.15;;;;;;;1.50;100.00;101124.98;1776398;80;21314;-58
2022/11/09 01:06:11;;;;;;;39.53;24.20;;;;;;;1.47;100.00;101117.48;1769435;81;21007;-59
2022/11/09 01:08:38;;;;;;;39.35;25.08;;;;;;;1.48;100.00;101112.72;1746112;81;21027;-58
2022/11/09 01:11:07;;;;;;;41.88;26.17;;;;;;;1.55;100.00;101112.64;1768740;81;20920;-65
2022/11/09 01:13:34;;;;;;;43.55;27.48;;;;;;;1.52;100.00;101109.02;1769632;81;22019;-57
2022/11/09 01:16:08;;;;;;;43.85;26.65;;;;;;;1.49;100.00;101109.69;1769280;81;20994;-57
2022/11/09 01:18:36;;;;;;;43.80;27.67;;;;;;;1.45;100.00;101110.35;1769662;81;20943;-57
2022/11/09 01:21:08;;;;;;;37.60;24.32;;;;;;;1.41;100.00;101110.20;1768935;81;21042;-59
2022/11/09 01:23:35;;;;;;;41.42;26.42;;;;;;;1.35;100.00;101108.03;1769559;81;21074;-57
2022/11/09 01:26:06;;;;;;;44.13;26.48;;;;;;;1.27;100.00;101115.43;1769314;81;21146;-58
2022/11/09 01:28:33;;;;;;;44.10;26.42;;;;;;;1.17;100.00;101112.17;1769646;81;21551;-57
2022/11/09 01:31:14;;;;;;;40.88;26.33;;;;;;;1.08;100.00;101113.25;1768939;81;20955;-57
2022/11/09 01:33:41;;;;;;;38.80;24.57;;;;;;;0.96;100.00;101116.16;1769328;81;20880;-57
2022/11/09 01:36:18;;;;;;;38.80;23.62;;;;;;;0.91;100.00;101112.61;1769402;81;21438;-57
2022/11/09 01:38:45;;;;;;;39.42;25.25;;;;;;;0.82;100.00;101113.66;1768937;81;22511;-58
2022/11/09 01:41:22;;;;;;;42.23;24.27;;;;;;;0.72;100.00;101109.59;1769177;81;21760;-57
2022/11/09 01:44:13;;;;;;;39.67;23.92;;;;;;;0.63;100.00;101114.02;1769342;80;20942;-58
2022/11/09 01:46:46;;;;;;;40.43;25.57;;;;;;;0.51;100.00;101122.03;1769404;81;21053;-57
2022/11/09 01:49:39;;;;;;;41.37;23.30;;;;;;;0.37;100.00;101128.02;1769512;80;21030;-57
2022/11/09 01:52:21;;;;;;;39.30;20.80;;;;;;;0.26;100.00;101127.86;1768794;80;21816;-60
2022/11/09 01:54:54;;;;;;;37.20;22.52;;;;;;;0.22;100.00;101136.20;1768868;81;20924;-58
2022/11/09 01:57:29;;;;;;;36.33;21.53;;;;;;;0.25;100.00;101140.33;1769868;81;21066;-58
2022/11/09 02:00:02;;;;;;;36.10;21.90;;;;;;;0.31;100.00;101136.11;1769417;81;21387;-58
2022/11/09 02:02:31;;;;;;;36.90;21.05;;;;;;;0.40;100.00;101142.40;1767403;81;20991;-58
2022/11/09 02:05:09;;;;;;;38.10;22.02;;;;;;;0.48;100.00;101149.16;1777242;80;21222;-58
2022/11/09 02:07:37;;;;;;;36.70;21.62;;;;;;;0.52;100.00;101151.89;1779658;80;21276;-59
2022/11/09 02:10:32;;;;;;;34.40;19.62;;;;;;;0.61;100.00;101144.91;1780140;80;21354;-58
2022/11/09 02:13:01;;;;;;;30.92;18.85;;;;;;;0.62;100.00;101155.99;1779803;80;21434;-60
2022/11/09 02:15:28;;;;;;;35.95;20.27;;;;;;;0.63;100.00;101155.88;1780128;80;21564;-58
2022/11/09 02:17:56;;;;;;;33.42;18.52;;;;;;;0.75;100.00;101166.30;1780085;80;21912;-59
2022/11/09 02:20:24;;;;;;;33.65;19.90;;;;;;;0.77;100.00;101167.03;1779960;79;20948;-60
2022/11/09 02:22:52;;;;;;;31.68;19.70;;;;;;;0.82;100.00;101167.55;1779633;80;20990;-66
2022/11/09 02:25:21;;;;;;;33.90;19.73;;;;;;;0.88;100.00;101165.89;1779757;80;21120;-59
2022/11/09 02:27:50;;;;;;;29.80;18.45;;;;;;;0.92;100.00;101168.63;1780019;80;20875;-59
2022/11/09 02:30:19;;;;;;;27.58;16.52;;;;;;;0.99;100.00;101169.88;1779910;80;21477;-58
2022/11/09 02:32:48;;;;;;;28.10;17.00;;;;;;;1.03;100.00;101164.91;1779409;80;20970;-65
2022/11/09 02:35:15;;;;;;;32.93;19.17;;;;;;;1.05;100.00;101166.08;1779926;80;21850;-58
2022/11/09 02:37:49;;;;;;;32.65;20.05;;;;;;;1.10;100.00;101162.74;1779983;80;20951;-58
2022/11/09 02:40:31;;;;;;;26.68;16.70;;;;;;;1.15;100.00;101170.52;1779938;80;21485;-59
2022/11/09 02:43:01;;;;;;;34.38;18.98;;;;;;;1.19;100.00;101164.27;1779948;80;21910;-58
2022/11/09 02:45:28;;;;;;;30.37;17.77;;;;;;;1.30;100.00;101165.31;1779901;79;20852;-58
2022/11/09 02:47:57;;;;;;;32.20;19.10;;;;;;;1.26;100.00;101162.13;1780055;80;20987;-59
2022/11/09 02:50:25;;;;;;;30.23;18.23;;;;;;;1.42;100.00;101159.36;1780241;80;20959;-58
2022/11/09 02:52:52;;;;;;;36.33;21.62;;;;;;;1.27;100.00;101164.23;1779485;80;20945;-59
2022/11/09 02:55:20;;;;;;;32.10;19.35;;;;;;;1.29;100.00;101161.08;1780310;80;21805;-58
2022/11/09 02:57:46;;;;;;;46.58;26.45;;;;;;;1.34;100.00;101159.05;1780236;80;20943;-58
2022/11/09 03:00:16;;;;;;;32.73;20.00;;;;;;;1.39;100.00;101158.27;1780148;80;20911;-58
2022/11/09 03:02:44;;;;;;;34.18;19.87;;;;;;;1.40;100.00;101156.06;1779877;80;21002;-59
2022/11/09 03:05:12;;;;;;;38.28;23.02;;;;;;;1.36;100.00;101155.91;1780476;80;21017;-59
2022/11/09 03:07:41;;;;;;;37.78;21.45;;;;;;;1.40;100.00;101150.48;1780378;80;21286;-58
2022/11/09 03:10:09;;;;;;;29.92;18.50;;;;;;;1.31;100.00;101147.22;1780180;80;20876;-58
2022/11/09 03:12:37;;;;;;;27.77;17.27;;;;;;;1.32;100.00;101148.04;1779782;80;20947;-59
2022/11/09 03:15:08;;;;;;;33.78;18.45;;;;;;;1.31;100.00;101150.26;1780163;80;21287;-58
2022/11/09 03:17:39;;;;;;;35.70;18.20;;;;;;;1.27;100.00;101155.23;1780230;80;21015;-58
2022/11/09 03:20:08;;;;;;;29.27;16.87;;;;;;;1.25;100.00;101160.48;1779988;80;21269;-58
2022/11/09 03:22:37;;;;;;;30.08;18.00;;;;;;;1.25;100.00;101157.92;1779521;80;20923;-60
2022/11/09 03:25:06;;;;;;;32.55;16.87;;;;;;;1.28;100.00;101156.88;1780217;80;21508;-57
2022/11/09 03:27:33;;;;;;;29.00;18.20;;;;;;;1.32;100.00;101163.45;1780347;80;20955;-58
2022/11/09 03:30:02;;;;;;;27.62;16.23;;;;;;;1.31;100.00;101161.81;1780134;80;21014;-58
2022/11/09 03:32:30;;;;;;;25.35;16.45;;;;;;;1.33;100.00;101167.69;1779885;80;21172;-68
2022/11/09 03:35:00;;;;;;;36.63;19.92;;;;;;;1.30;100.00;101162.28;1779890;80;21001;-58
2022/11/09 03:37:27;;;;;;;31.27;17.82;;;;;;;1.26;100.00;101162.59;1780183;80;20883;-59
2022/11/09 03:40:16;;;;;;;27.25;16.70;;;;;;;1.27;100.00;101163.77;1780121;80;20948;-59
2022/11/09 03:42:45;;;;;;;32.65;17.87;;;;;;;1.34;100.00;101157.30;1780326;80;21117;-60
2022/11/09 03:45:13;;;;;;;34.13;19.80;;;;;;;1.37;100.00;101156.29;1780062;80;21541;-59
2022/11/09 03:47:44;;;;;;;33.15;19.98;;;;;;;1.34;100.00;101161.63;1780111;80;20932;-59
2022/11/09 03:50:14;;;;;;;34.58;19.90;;;;;;;1.32;100.00;101163.45;1779447;80;20939;-64
2022/11/09 03:52:45;;;;;;;31.77;19.17;;;;;;;1.31;100.00;101166.95;1780164;80;21359;-59
2022/11/09 03:55:12;;;;;;;31.82;18.50;;;;;;;1.27;100.00;101170.19;1780452;80;20983;-59
2022/11/09 03:57:41;;;;;;;33.85;18.35;;;;;;;1.24;100.00;101169.09;1779950;80;21178;-60
2022/11/09 04:00:11;;;;;;;29.18;17.45;;;;;;;1.19;100.00;101177.10;1746429;80;20939;-60
2022/11/09 04:02:40;;;;;;;32.42;18.27;;;;;;;1.15;100.00;101181.27;1780121;80;21224;-59
2022/11/09 04:05:08;;;;;;;32.20;19.05;;;;;;;1.16;100.00;101182.44;1779876;80;20896;-58
2022/11/09 04:07:36;;;;;;;30.23;17.48;;;;;;;1.13;100.00;101187.77;1780224;80;20923;-59
2022/11/09 04:10:05;;;;;;;34.00;19.30;;;;;;;1.20;100.00;101190.77;1780120;80;21160;-66
2022/11/09 04:12:34;;;;;;;29.18;17.07;;;;;;;1.19;100.00;101192.98;1779929;80;21084;-58
2022/11/09 04:15:02;;;;;;;30.12;18.55;;;;;;;1.21;100.00;101203.52;1780338;80;20994;-59
2022/11/09 04:17:30;;;;;;;32.90;18.67;;;;;;;1.18;100.00;101203.72;1780062;80;20986;-59
2022/11/09 04:19:59;;;;;;;28.32;18.07;;;;;;;1.18;100.00;101198.58;1780133;80;21067;-68
2022/11/09 04:22:26;;;;;;;27.58;17.48;;;;;;;1.17;100.00;101200.77;1779970;80;21112;-59
2022/11/09 04:24:54;;;;;;;30.97;18.12;;;;;;;1.17;100.00;101198.66;1780014;80;20984;-59
2022/11/09 04:27:21;;;;;;;32.98;18.87;;;;;;;1.17;100.00;101204.61;1779955;80;20987;-59
2022/11/09 04:29:49;;;;;;;30.25;19.10;;;;;;;1.17;100.00;101202.05;1779776;80;20955;-59
2022/11/09 04:32:16;;;;;;;28.27;17.60;;;;;;;1.19;100.00;101198.94;1779879;80;20986;-60
2022/11/09 04:34:44;;;;;;;31.75;19.40;;;;;;;1.15;100.00;101202.63;1780307;80;21726;-58
2022/11/09 04:37:11;;;;;;;30.50;19.50;;;;;;;1.15;100.00;101203.91;1779959;80;20924;-58
2022/11/09 04:39:38;;;;;;;30.27;19.07;;;;;;;1.18;100.00;101206.75;1779920;80;21102;-58
2022/11/09 04:42:06;;;;;;;33.28;18.95;;;;;;;1.24;100.00;101205.52;1767988;80;21027;-58
2022/11/09 04:44:34;;;;;;;32.98;18.90;;;;;;;1.16;100.00;101208.11;1761836;81;20972;-59
2022/11/09 04:47:02;;;;;;;31.17;18.87;;;;;;;1.23;100.00;101214.15;1762419;81;21334;-58
2022/11/09 04:49:29;;;;;;;33.67;19.27;;;;;;;1.24;100.00;101215.32;1762340;81;20968;-59
2022/11/09 04:51:56;;;;;;;28.35;18.02;;;;;;;1.27;100.00;101224.59;1762310;81;20920;-58
2022/11/09 04:54:24;;;;;;;35.35;20.08;;;;;;;1.32;100.00;101222.53;1762124;81;21028;-63
2022/11/09 04:56:52;;;;;;;34.30;20.15;;;;;;;1.34;100.00;101233.08;1762203;81;22280;-59
2022/11/09 04:59:19;;;;;;;32.78;19.20;;;;;;;1.39;100.00;101230.20;1762368;81;21177;-58
2022/11/09 05:01:46;;;;;;;33.33;19.42;;;;;;;1.53;100.00;101231.88;1762529;81;20875;-57
2022/11/09 05:04:14;;;;;;;38.53;22.05;;;;;;;1.52;100.00;101234.92;1762187;81;20932;-63
2022/11/09 05:06:41;;;;;;;34.70;20.92;;;;;;;1.57;100.00;101234.14;1761706;81;21020;-58
2022/11/09 05:09:08;;;;;;;36.83;21.55;;;;;;;1.61;100.00;101234.30;1762252;81;21851;-58
2022/11/09 05:11:37;;;;;;;32.95;19.90;;;;;;;1.65;100.00;101233.17;1762197;81;22720;-58
2022/11/09 05:14:06;;;;;;;39.53;21.90;;;;;;;1.69;100.00;101238.47;1762251;81;20912;-58
2022/11/09 05:16:36;;;;;;;43.92;23.35;;;;;;;1.63;100.00;101250.89;1761978;81;20929;-61
2022/11/09 05:19:04;;;;;;;40.08;21.37;;;;;;;1.82;100.00;101233.80;1762450;81;21003;-60
2022/11/09 05:21:31;;;;;;;34.30;20.48;;;;;;;1.89;100.00;101233.75;1762282;81;20996;-58
2022/11/09 05:23:58;;;;;;;37.95;20.20;;;;;;;1.90;100.00;101236.23;1762250;81;21541;-58
2022/11/09 05:26:32;;;;;;;27.60;17.42;;;;;;;1.92;100.00;101234.83;1762177;81;21514;-61
2022/11/09 05:29:01;;;;;;;30.17;17.10;;;;;;;1.98;100.00;101233.61;1761886;81;21899;-58
2022/11/09 05:31:29;;;;;;;26.30;16.77;;;;;;;2.02;100.00;101240.19;1762465;81;20948;-58
2022/11/09 05:33:58;;;;;;;31.15;17.23;;;;;;;2.06;100.00;101237.77;1762387;81;20975;-58
2022/11/09 05:36:27;;;;;;;29.98;17.50;;;;;;;2.09;100.00;101229.39;1761894;81;21274;-59
2022/11/09 05:38:54;;;;;;;24.82;15.78;;;;;;;2.13;100.00;101228.25;1762180;81;21006;-59
2022/11/09 05:41:21;;;;;;;25.50;14.83;;;;;;;2.17;100.00;101233.54;1764176;80;21430;-58
2022/11/09 09:57:56;;;;;;;22.93;18.10;;;;;;;6.96;100.00;101287.09;1772672;80;22598;-57
2022/11/09 10:00:25;;;;;;;23.73;18.03;;;;;;;7.39;100.00;101283.33;1733845;82;20884;-59
2022/11/09 10:02:53;;;;;;;25.20;18.47;;;;;;;7.39;100.00;101283.33;1734280;82;22307;-58
2022/11/09 10:05:26;;;;;;;20.63;14.80;;;;;;;7.66;100.00;101284.41;1734714;82;21862;-58
2022/11/09 10:08:08;;;;;;;20.07;14.50;;;;;;;7.66;100.00;101284.41;1733927;82;21391;-61
2022/11/09 10:11:07;;;;;;;18.97;13.83;;;;;;;7.86;100.00;101279.51;1734152;81;22263;-58
2022/11/09 10:13:49;;;;;;;18.27;14.80;;;;;;;8.02;100.00;101278.43;1733755;82;21575;-62
2022/11/09 10:16:25;;;;;;;19.50;13.83;;;;;;;8.18;100.00;101282.20;1734492;82;21335;-60
2022/11/09 10:19:19;;;;;;;16.93;13.40;;;;;;;8.20;100.00;101276.41;1734050;82;21683;-58
2022/11/09 10:21:57;;;;;;;18.60;15.23;;;;;;;8.07;100.00;101279.33;1734212;82;21493;-60
2022/11/09 10:24:51;;;;;;;20.93;15.13;;;;;;;8.35;100.00;101277.58;1734285;82;21373;-59
2022/11/09 10:27:55;;;;;;;21.83;15.30;;;;;;;8.35;100.00;101277.58;1734158;82;21425;-58
2022/11/09 10:30:24;;;;;;;23.77;17.20;;;;;;;8.36;100.00;101270.11;1727551;82;21411;-59
2022/11/09 10:33:17;;;;;;;25.60;18.77;;;;;;;8.13;100.00;101275.34;1734307;82;21918;-58
2022/11/09 10:36:32;;;;;;;24.30;17.40;;;;;;;8.04;100.00;101278.31;1719590;82;21388;-59
2022/11/09 10:39:00;;;;;;;25.00;18.90;;;;;;;8.07;100.00;101277.19;1733447;82;21467;-59
2022/11/09 10:41:46;;;;;;;23.30;17.67;;;;;;;8.11;100.00;101278.56;1733981;82;21496;-58
2022/11/09 10:44:32;;;;;;;26.03;20.33;;;;;;;8.29;100.00;101267.26;1733306;82;21509;-59
2022/11/09 10:47:18;;;;;;;24.67;18.60;;;;;;;8.35;100.00;101275.47;1733988;82;21289;-58
2022/11/09 10:50:35;;;;;;;24.13;19.53;;;;;;;8.25;100.00;101267.70;1733665;82;21544;-58
2022/11/09 10:53:24;;;;;;;24.63;19.47;;;;;;;8.39;100.00;101269.86;1717894;82;21632;-59
2022/11/09 10:56:18;;;;;;;24.70;19.03;;;;;;;8.50;100.00;101273.57;1738144;81;21702;-59
2022/11/09 10:59:29;;;;;;;28.30;21.77;;;;;;;8.38;100.00;101272.61;1754536;81;21869;-58
2022/11/09 11:02:42;;;;;;;26.00;19.97;;;;;;;8.32;100.00;101270.06;1754473;81;21585;-58
2022/11/09 11:05:28;;;;;;;26.40;20.53;;;;;;;8.32;100.00;101270.06;1754761;81;21654;-66
2022/11/09 11:08:22;;;;;;;29.40;21.77;;;;;;;7.83;100.00;101277.67;1755273;81;21433;-59
2022/11/09 11:11:24;;;;;;;32.70;20.72;;;;;;;7.83;100.00;101277.67;1754873;81;21315;-58
2022/11/09 11:14:33;;;;;;;27.23;20.17;;;;;;;7.74;100.00;101276.73;1754717;81;21251;-68
2022/11/09 11:17:27;;;;;;;31.37;22.07;;;;;;;8.03;100.00;101267.11;1754918;81;22057;-58
2022/11/09 11:20:35;;;;;;;29.67;22.97;;;;;;;8.18;100.00;101260.13;1754904;81;21365;-58
2022/11/09 11:23:24;;;;;;;26.13;19.43;;;;;;;8.20;100.00;101257.74;1754803;81;21529;-58
2022/11/09 11:26:27;;;;;;;24.03;17.90;;;;;;;8.29;100.00;101260.77;1735208;81;21248;-60
2022/11/09 11:29:42;;;;;;;25.20;19.27;;;;;;;8.36;100.00;101263.61;1755131;81;21257;-58
2022/11/09 11:32:29;;;;;;;26.37;20.20;;;;;;;8.36;100.00;101263.61;1754927;81;21490;-59
2022/11/09 11:35:25;;;;;;;26.53;20.30;;;;;;;8.44;100.00;101267.64;1754965;81;21476;-66
2022/11/09 11:38:37;;;;;;;24.83;18.67;;;;;;;8.37;100.00;101270.50;1754843;81;21893;-58
2022/11/09 11:41:38;;;;;;;;;;;;;;;8.40;100.00;101262.88;1757527;81;22182;-57
2022/11/09 11:44:57;;;;;;;24.70;18.07;;;;;;;8.39;100.00;101267.27;1723694;83;21689;-59
2022/11/09 11:48:25;;;;;;;26.17;19.43;;;;;;;8.39;100.00;101267.27;1723377;83;21295;-60
2022/11/09 11:51:20;;;;;;;36.90;28.63;;;;;;;8.11;100.00;101274.67;1723954;83;21860;-58
2022/11/09 11:54:29;;;;;;;30.87;22.77;;;;;;;8.11;100.00;101274.67;1724580;83;21399;-58
2022/11/09 11:57:44;;;;;;;26.37;20.50;;;;;;;8.12;100.00;101272.41;1724139;82;21310;-59
2022/11/09 12:00:32;;;;;;;36.20;28.40;;;;;;;8.03;100.00;101278.80;1724215;82;21238;-59
2022/11/09 12:03:40;;;;;;;28.27;20.97;;;;;;;7.93;100.00;101266.31;1723744;83;21306;-61
2022/11/09 12:06:37;;;;;;;31.43;19.20;;;;;;;7.93;100.00;101266.31;1723388;83;21399;-59
2022/11/09 12:09:33;;;;;;;25.80;17.90;;;;;;;7.90;100.00;101269.66;1723906;83;21281;-59
2022/11/09 12:12:38;;;;;;;23.63;16.67;;;;;;;7.75;100.00;101264.09;1724206;83;21406;-59
2022/11/09 12:15:47;;;;;;;24.90;19.13;;;;;;;7.54;100.00;101265.09;1723384;83;21750;-60
2022/11/09 12:18:53;;;;;;;25.30;18.30;;;;;;;7.41;100.00;101270.21;1724174;83;21343;-59
2022/11/09 12:22:17;;;;;;;31.77;19.93;;;;;;;7.28;100.00;101273.09;1723999;83;21068;-59
2022/11/09 12:25:31;;;;;;;28.33;18.90;;;;;;;7.16;100.00;101271.56;1723199;83;21188;-59
2022/11/09 12:28:47;;;;;;;23.13;18.17;;;;;;;7.04;100.00;101272.98;1724229;82;21667;-59
2022/11/09 12:31:59;;;;;;;24.80;18.50;;;;;;;6.94;100.00;101269.58;1724001;83;21335;-59
2022/11/09 12:35:20;;;;;;;22.27;15.78;;;;;;;6.88;100.00;101274.48;1724473;83;21668;-61
2022/11/09 12:38:22;;;;;;;21.37;16.57;;;;;;;6.84;100.00;101279.11;1726206;81;21517;-60
2022/11/09 12:41:16;;;;;;;22.62;17.52;;;;;;;6.73;100.00;101274.03;1724123;82;21469;-60
2022/11/09 12:44:23;;;;;;;26.50;20.13;;;;;;;6.78;100.00;101272.70;1724237;83;20976;-65
2022/11/09 12:47:21;;;;;;;32.63;23.80;;;;;;;6.61;100.00;101280.28;1724199;83;21265;-59
2022/11/09 12:50:13;;;;;;;21.63;14.57;;;;;;;6.48;100.00;101275.34;1723858;83;21776;-59
2022/11/09 12:52:59;;;;;;;19.57;14.63;;;;;;;6.45;100.00;101275.13;1723678;83;21154;-59
2022/11/09 12:56:21;;;;;;;24.13;15.87;;;;;;;6.42;100.00;101281.84;1724059;83;21188;-58
2022/11/09 12:59:29;;;;;;;23.20;16.47;;;;;;;6.28;100.00;101280.42;1724183;83;21700;-59
2022/11/09 13:02:38;;;;;;;22.10;15.23;;;;;;;6.06;100.00;101284.47;1724074;82;21246;-61
2022/11/09 13:05:36;;;;;;;22.07;15.13;;;;;;;5.95;100.00;101287.16;1723908;83;21304;-60
2022/11/09 13:08:30;;;;;;;22.63;17.63;;;;;;;5.91;100.00;101289.59;1723843;83;21185;-62
2022/11/09 13:11:36;;;;;;;35.20;25.73;;;;;;;5.73;100.00;101285.48;1724106;83;21248;-60
2022/11/09 13:14:29;;;;;;;24.97;18.47;;;;;;;5.57;100.00;101280.76;1724335;82;21241;-58
2022/11/09 13:17:29;;;;;;;33.83;25.25;;;;;;;5.44;100.00;101291.73;1723857;83;21831;-59
2022/11/09 13:20:37;;;;;;;41.68;30.68;;;;;;;5.31;100.00;101286.74;1724083;83;20989;-58
2022/11/09 13:23:32;;;;;;;29.15;19.57;;;;;;;5.15;100.00;101294.87;1724180;83;21454;-58
2022/11/09 13:26:36;;;;;;;29.37;18.50;;;;;;;4.98;100.00;101297.52;1723420;82;21498;-59
2022/11/09 17:04:17;;;;;;;216.02;98.78;;;;;;;0.52;100.00;101388.36;1805449;78;27791;-59
2022/11/09 17:07:03;;;;;;;112.37;66.45;;;;;;;0.61;100.00;101392.97;1783472;80;20983;-58
2022/11/09 17:09:49;;;;;;;105.80;62.78;;;;;;;0.79;100.00;101392.31;1782330;80;21145;-59
2022/11/09 17:12:35;;;;;;;130.50;71.97;;;;;;;0.87;100.00;101395.23;1783120;80;20924;-58
2022/11/09 17:15:21;;;;;;;174.42;84.62;;;;;;;1.04;100.00;101389.09;1782719;80;20952;-59
2022/11/09 17:18:08;;;;;;;118.05;62.62;;;;;;;1.16;100.00;101386.59;1783391;80;20971;-59
2022/11/09 17:20:54;;;;;;;113.80;63.63;;;;;;;1.26;100.00;101389.89;1782636;79;21406;-59
2022/11/09 17:23:41;;;;;;;119.90;68.60;;;;;;;1.36;100.00;101398.66;1783168;80;21275;-58
2022/11/09 17:26:27;;;;;;;130.45;69.70;;;;;;;1.32;100.00;101397.20;1783066;80;21010;-59
2022/11/09 17:29:14;;;;;;;111.28;61.65;;;;;;;1.27;100.00;101400.06;1764742;80;20873;-59
2022/11/09 17:32:00;;;;;;;101.70;60.48;;;;;;;1.20;100.00;101395.75;1782707;79;21439;-59
2022/11/09 17:34:48;;;;;;;97.50;58.28;;;;;;;1.15;100.00;101395.22;1783365;80;21086;-58
2022/11/09 17:37:35;;;;;;;102.35;57.93;;;;;;;1.10;100.00;101395.12;1765126;80;21202;-59
2022/11/09 17:40:21;;;;;;;93.45;55.12;;;;;;;1.16;100.00;101400.72;1783113;80;20920;-58
2022/11/09 17:43:07;;;;;;;93.30;55.38;;;;;;;1.04;100.00;101401.47;1782951;79;20988;-58
2022/11/09 17:45:52;;;;;;;89.00;52.40;;;;;;;0.99;100.00;101390.67;1783097;80;20924;-59
2022/11/09 17:48:39;;;;;;;86.67;49.95;;;;;;;0.99;100.00;101389.84;1783265;79;20943;-58
2022/11/09 17:51:24;;;;;;;74.00;47.33;;;;;;;0.93;100.00;101391.84;1783514;80;21410;-58
2022/11/09 17:54:10;;;;;;;77.45;48.55;;;;;;;0.87;100.00;101390.10;1783160;80;22034;-58
2022/11/09 17:56:59;;;;;;;74.58;48.30;;;;;;;0.80;100.00;101396.09;1783250;80;20967;-59
2022/11/09 17:59:45;;;;;;;89.10;55.65;;;;;;;0.76;100.00;101398.47;1783102;79;21773;-59
2022/11/09 18:02:31;;;;;;;107.00;65.72;;;;;;;0.65;100.00;101402.13;1781222;79;21111;-60
2022/11/09 18:05:16;;;;;;;102.02;61.63;;;;;;;0.59;100.00;101407.61;1772498;79;21201;-62
2022/11/09 18:08:07;;;;;;;101.27;60.00;;;;;;;0.55;100.00;101408.71;1772493;79;20869;-60
2022/11/09 18:10:52;;;;;;;122.82;76.57;;;;;;;0.52;100.00;101410.98;1772802;79;21896;-60
2022/11/09 18:13:39;;;;;;;119.93;72.97;;;;;;;0.45;100.00;101404.10;1761667;80;20901;-61
2022/11/09 18:16:26;;;;;;;129.87;66.40;;;;;;;0.39;100.00;101406.22;1771827;80;22014;-58
2022/11/09 18:19:13;;;;;;;90.07;53.68;;;;;;;0.31;100.00;101402.82;1772046;81;20826;-58
2022/11/09 18:21:58;;;;;;;92.70;56.35;;;;;;;0.23;100.00;101405.83;1772140;81;20991;-59
2022/11/09 18:24:45;;;;;;;162.00;82.53;;;;;;;0.23;100.00;101407.11;1772025;81;20889;-58
2022/11/09 18:27:31;;;;;;;107.15;60.28;;;;;;;0.19;100.00;101408.62;1771870;81;21555;-58
2022/11/09 18:30:40;;;;;;;103.92;65.67;;;;;;;0.15;100.00;101414.42;1771769;81;20980;-58
2022/11/09 18:33:24;;;;;;;83.95;50.05;;;;;;;0.13;100.00;101423.09;1747061;81;21164;-58
2022/11/09 18:36:14;;;;;;;87.78;51.23;;;;;;;0.06;100.00;101417.48;1746377;82;20935;-59
2022/11/09 18:39:02;;;;;;;74.47;47.65;;;;;;;0.09;100.00;101422.91;1747170;82;20887;-58
2022/11/09 18:41:47;;;;;;;79.60;48.42;;;;;;;0.10;100.00;101421.98;1746993;82;22522;-59
2022/11/09 18:44:34;;;;;;;90.28;55.30;;;;;;;0.11;100.00;101427.02;1747185;82;20852;-60
2022/11/09 18:47:19;;;;;;;77.90;51.45;;;;;;;0.15;100.00;101430.23;1747022;82;21817;-60
2022/11/09 18:50:07;;;;;;;83.42;52.05;;;;;;;0.16;100.00;101431.44;1747010;82;21358;-59
2022/11/09 18:52:53;;;;;;;83.33;52.85;;;;;;;0.17;100.00;101437.39;1746894;82;20994;-59
2022/11/09 18:55:39;;;;;;;74.85;48.63;;;;;;;0.17;100.00;101439.49;1746775;82;21053;-59
2022/11/09 18:58:24;;;;;;;85.77;51.55;;;;;;;0.19;100.00;101442.81;1747392;82;21030;-59
2022/11/09 19:01:10;;;;;;;81.37;53.35;;;;;;;0.19;100.00;101447.09;1747505;82;21168;-59
2022/11/09 19:03:59;;;;;;;83.35;51.48;;;;;;;0.22;100.00;101438.77;1746874;81;21379;-60
2022/11/09 19:06:44;;;;;;;94.65;56.28;;;;;;;0.27;100.00;101445.41;1747230;81;21441;-58
2022/11/09 19:09:33;;;;;;;98.65;60.45;;;;;;;0.27;100.00;101444.94;1746889;82;21483;-58
2022/11/09 19:12:17;;;;;;;90.77;58.75;;;;;;;0.30;100.00;101451.61;1747151;82;20856;-58
2022/11/09 19:15:06;;;;;;;74.60;48.58;;;;;;;0.26;100.00;101451.42;1747265;81;20966;-59
2022/11/09 19:17:51;;;;;;;82.65;51.50;;;;;;;0.34;100.00;101458.22;1746777;82;20888;-60
2022/11/09 19:20:38;;;;;;;76.80;45.98;;;;;;;0.30;100.00;101457.56;1746466;82;21058;-59
2022/11/09 19:23:26;;;;;;;79.80;48.30;;;;;;;0.31;100.00;101460.52;1747155;81;20860;-60
2022/11/09 19:26:11;;;;;;;79.32;50.15;;;;;;;0.33;100.00;101460.42;1746850;82;21031;-60
2022/11/09 19:28:58;;;;;;;54.70;35.78;;;;;;;0.38;100.00;101460.55;1747232;82;21261;-61
2022/11/09 19:31:44;;;;;;;48.10;31.48;;;;;;;0.40;100.00;101461.73;1752895;81;20977;-58
2022/11/09 19:34:30;;;;;;;42.40;27.37;;;;;;;0.33;100.00;101457.86;1763626;81;21429;-63
2022/11/09 19:37:16;;;;;;;33.60;23.02;;;;;;;0.31;100.00;101457.14;1763726;81;20923;-59
2022/11/09 19:40:03;;;;;;;42.65;29.25;;;;;;;0.26;100.00;101460.40;1763463;81;20962;-60
2022/11/09 19:42:49;;;;;;;50.20;32.33;;;;;;;0.21;100.00;101458.09;1763652;81;21170;-58
2022/11/09 19:45:41;;;;;;;53.60;30.60;;;;;;;0.14;100.00;101458.07;1763272;81;21464;-59
2022/11/09 19:48:27;;;;;;;56.80;34.23;;;;;;;0.10;100.00;101453.56;1763867;81;20914;-58
2022/11/09 19:51:14;;;;;;;65.42;39.48;;;;;;;0.03;100.00;101459.95;1763028;81;20950;-59
2022/11/09 19:54:01;;;;;;;59.35;37.73;;;;;;;0.01;100.00;101460.50;1763567;81;20982;-58
2022/11/09 19:56:46;;;;;;;46.65;29.45;;;;;;;0.01;100.00;101463.06;1763340;81;21231;-58
2022/11/09 19:59:33;;;;;;;32.90;22.07;;;;;;;-0.01;100.00;101458.01;1763850;81;20895;-58
2022/11/09 20:02:19;;;;;;;30.97;20.70;;;;;;;0.02;100.00;101458.77;1763488;81;21037;-61